Time;durP1;ratioP1;P1;durP2;ratioP2;P2;SDS_P1;SDS_P2;PMS_P1;PMS_P2;Temp;Humidity;BMP_temperature;BMP_pressure;BME280_temperature;BME280_humidity;BME280_pressure;Samples;Min_cycle;Max_cycle;Signal;HPM_P1;HPM_P2
2023/09/15 00:02:00;;;;;;;5.57;4.72;;;18.70;58.70;20.50;101878.00;;;;5109141;28;20225;-85
2023/09/15 00:04:28;;;;;;;6.15;5.53;;;18.70;58.70;20.50;101880.00;;;;5110490;28;20212;-84
2023/09/15 00:06:56;;;;;;;7.93;4.90;;;18.70;58.70;20.50;101879.00;;;;5110181;28;20197;-85
2023/09/15 00:09:22;;;;;;;9.00;5.22;;;18.70;58.70;20.50;101880.00;;;;5100134;28;20194;-84
2023/09/15 00:11:50;;;;;;;6.95;4.97;;;18.70;58.70;20.50;101876.00;;;;5109527;28;20197;-84
2023/09/15 00:14:18;;;;;;;8.75;4.78;;;18.70;58.80;20.50;101880.00;;;;5090633;28;20236;-84
2023/09/15 00:16:46;;;;;;;5.80;5.20;;;18.70;58.80;20.50;101880.00;;;;5090472;28;20194;-84
2023/09/15 00:19:16;;;;;;;5.38;4.60;;;18.70;58.80;20.40;101876.00;;;;5109703;27;20192;-84
2023/09/15 00:21:47;;;;;;;6.88;4.93;;;18.70;58.80;20.40;101877.00;;;;5113502;27;20271;-85
2023/09/15 00:24:14;;;;;;;5.97;5.10;;;18.60;58.80;20.40;101877.00;;;;5110599;28;20597;-84
2023/09/15 00:26:43;;;;;;;5.57;5.00;;;18.60;58.80;20.40;101882.00;;;;5109783;28;20740;-84
2023/09/15 00:29:11;;;;;;;4.70;4.10;;;18.60;58.80;20.40;101877.00;;;;5107990;28;20221;-84
2023/09/15 00:31:38;;;;;;;5.25;4.60;;;18.60;58.80;20.40;101874.00;;;;5102928;28;20581;-84
2023/09/15 00:34:05;;;;;;;5.82;4.78;;;18.60;58.80;20.40;101864.00;;;;5110785;28;20201;-84
2023/09/15 00:36:32;;;;;;;6.40;5.15;;;18.60;58.80;20.40;101870.00;;;;5110022;28;20197;-84
2023/09/15 00:39:01;;;;;;;9.70;5.20;;;18.60;58.80;20.40;101864.00;;;;5106822;28;20208;-84
2023/09/15 00:41:28;;;;;;;6.03;4.53;;;18.60;58.90;20.30;101876.00;;;;5108326;28;20620;-85
2023/09/15 00:43:55;;;;;;;6.68;5.18;;;18.50;58.80;20.30;101862.00;;;;5111173;28;20206;-84
2023/09/15 00:46:22;;;;;;;5.53;4.90;;;18.50;58.80;20.30;101859.00;;;;5104719;28;20202;-84
2023/09/15 00:48:51;;;;;;;7.07;4.82;;;18.50;58.90;20.30;101863.00;;;;5090249;28;20194;-84
2023/09/15 00:51:18;;;;;;;7.10;5.65;;;18.50;58.90;20.30;101858.00;;;;5094469;28;20202;-84
2023/09/15 00:53:45;;;;;;;7.55;4.68;;;18.50;58.90;20.30;101859.00;;;;5105254;28;20190;-84
2023/09/15 00:56:14;;;;;;;5.68;4.85;;;18.50;58.90;20.20;101855.00;;;;5090679;28;20687;-84
2023/09/15 00:58:41;;;;;;;6.68;5.50;;;18.50;58.90;20.20;101855.00;;;;5109039;28;20604;-84
2023/09/15 01:01:09;;;;;;;4.63;4.13;;;18.50;58.90;20.20;101859.00;;;;5107540;28;20554;-84
2023/09/15 01:03:41;;;;;;;10.38;5.70;;;18.40;58.90;20.20;101861.00;;;;5103050;28;20217;-84
2023/09/15 01:06:11;;;;;;;6.70;4.75;;;18.40;59.00;20.20;101858.00;;;;5099055;28;20197;-84
2023/09/15 01:08:41;;;;;;;5.32;4.00;;;18.40;58.90;20.20;101856.00;;;;5099734;28;20201;-85
2023/09/15 01:11:08;;;;;;;7.45;5.13;;;18.40;58.90;20.10;101849.00;;;;5107225;28;20200;-85
2023/09/15 01:13:37;;;;;;;5.50;4.82;;;18.40;59.00;20.10;101850.00;;;;5106811;28;20224;-85
2023/09/15 01:16:12;;;;;;;6.45;4.63;;;18.30;59.00;20.10;101847.00;;;;5108943;28;20231;-83
2023/09/15 01:18:50;;;;;;;4.95;4.38;;;18.30;59.10;20.00;101838.00;;;;5108477;28;20205;-85
2023/09/15 01:22:13;;;;;;;8.13;4.50;;;18.30;59.10;19.90;101834.00;;;;5098294;28;20201;-85
2023/09/15 01:25:29;;;;;;;6.25;4.45;;;18.30;59.90;19.90;101832.00;;;;5092091;28;20236;-84
2023/09/15 01:28:20;;;;;;;5.35;4.75;;;18.30;59.40;19.90;101832.00;;;;5081653;28;20236;-85
2023/09/15 01:30:51;;;;;;;4.82;3.90;;;18.20;59.10;19.90;101827.00;;;;5108620;28;20204;-84
2023/09/15 01:33:20;;;;;;;8.32;4.32;;;18.20;59.00;20.00;101830.00;;;;5108055;28;20659;-85
2023/09/15 01:35:47;;;;;;;5.25;4.22;;;18.20;59.10;19.90;101825.00;;;;5102209;28;20677;-85
2023/09/15 01:38:14;;;;;;;7.13;4.72;;;18.10;59.10;19.90;101833.00;;;;5094069;28;20820;-85
2023/09/15 01:40:41;;;;;;;4.10;3.70;;;18.10;59.10;19.90;101829.00;;;;5093520;28;20197;-85
2023/09/15 01:43:10;;;;;;;4.53;3.92;;;18.10;59.20;19.90;101830.00;;;;5108409;28;20232;-84
2023/09/15 01:45:37;;;;;;;4.65;4.15;;;18.10;59.30;19.90;101830.00;;;;5094080;28;20197;-85
2023/09/15 01:48:06;;;;;;;6.75;4.47;;;18.10;59.30;19.80;101823.00;;;;5106534;28;20190;-85
2023/09/15 01:50:35;;;;;;;5.38;4.32;;;18.00;59.30;19.80;101820.00;;;;5092594;28;20197;-85
2023/09/15 01:53:04;;;;;;;4.75;3.97;;;18.00;59.30;19.80;101828.00;;;;5108248;28;20205;-85
2023/09/15 01:55:34;;;;;;;6.47;4.72;;;18.00;59.90;19.80;101826.00;;;;5097006;28;20197;-85
2023/09/15 01:58:01;;;;;;;6.32;4.22;;;18.00;59.30;19.80;101824.00;;;;5094217;28;20283;-85
2023/09/15 02:00:34;;;;;;;6.40;4.70;;;18.00;59.30;19.70;101823.00;;;;5099260;28;20224;-85
2023/09/15 02:03:01;;;;;;;5.88;4.40;;;18.00;59.50;19.80;101821.00;;;;5106214;28;20229;-85
2023/09/15 02:05:30;;;;;;;6.00;4.10;;;18.00;59.50;19.70;101824.00;;;;5107144;28;20284;-84
2023/09/15 02:07:57;;;;;;;5.28;4.05;;;18.00;59.40;19.80;101810.00;;;;5106690;28;20201;-84
2023/09/15 02:10:24;;;;;;;5.63;3.72;;;17.90;59.40;19.70;101815.00;;;;5105765;28;20186;-84
2023/09/15 02:12:51;;;;;;;6.30;4.45;;;17.90;59.50;19.70;101818.00;;;;5119515;28;20225;-85
2023/09/15 02:15:19;;;;;;;6.10;3.88;;;17.90;59.50;19.70;101815.00;;;;5108662;28;20202;-85
2023/09/15 02:17:46;;;;;;;5.32;3.95;;;17.90;59.50;19.70;101812.00;;;;5102279;28;20625;-84
2023/09/15 02:20:13;;;;;;;4.88;4.15;;;17.90;59.60;19.70;101811.00;;;;5107974;28;20194;-84
2023/09/15 02:22:43;;;;;;;5.05;3.85;;;17.90;59.50;19.60;101820.00;;;;5118388;28;20907;-85
2023/09/15 02:25:11;;;;;;;5.07;4.20;;;17.80;59.60;19.60;101811.00;;;;5111750;28;20190;-83
2023/09/15 02:27:38;;;;;;;6.53;4.15;;;17.80;59.50;19.60;101813.00;;;;5112701;28;20197;-85
2023/09/15 02:30:08;;;;;;;4.43;3.42;;;17.80;59.60;19.60;101811.00;;;;5110106;28;20582;-84
2023/09/15 02:32:35;;;;;;;4.53;3.83;;;17.80;59.60;19.60;101806.00;;;;5110471;28;20204;-84
2023/09/15 02:35:03;;;;;;;4.50;3.72;;;17.80;59.60;19.60;101810.00;;;;5115258;28;20208;-85
2023/09/15 02:37:30;;;;;;;6.35;3.70;;;17.70;59.60;19.50;101804.00;;;;5113346;28;20204;-84
2023/09/15 02:39:58;;;;;;;5.13;3.75;;;17.70;59.70;19.50;101814.00;;;;5112559;28;20676;-85
2023/09/15 02:42:26;;;;;;;7.72;4.05;;;17.70;59.70;19.50;101811.00;;;;5110831;28;20221;-84
2023/09/15 02:44:53;;;;;;;5.72;3.92;;;17.70;59.80;19.50;101804.00;;;;5110747;28;20516;-84
2023/09/15 02:47:20;;;;;;;5.82;4.15;;;17.70;59.80;19.50;101809.00;;;;5092509;28;20191;-83
2023/09/15 02:49:47;;;;;;;5.10;3.85;;;17.70;59.80;19.50;101806.00;;;;5093094;28;21005;-84
2023/09/15 02:52:14;;;;;;;8.43;3.95;;;17.70;59.80;19.50;101808.00;;;;5111426;27;20194;-84
2023/09/15 02:54:41;;;;;;;4.85;3.97;;;17.70;59.80;19.50;101812.00;;;;5111240;28;20201;-84
2023/09/15 02:57:09;;;;;;;4.80;3.40;;;17.60;59.80;19.40;101808.00;;;;5113442;27;20198;-84
2023/09/15 02:59:36;;;;;;;4.65;3.78;;;17.60;59.80;19.40;101806.00;;;;5108050;28;20187;-85
2023/09/15 03:02:03;;;;;;;5.50;3.85;;;17.60;59.90;19.40;101796.00;;;;5100168;28;20874;-84
2023/09/15 03:04:30;;;;;;;5.97;4.07;;;17.60;59.90;19.40;101797.00;;;;5103017;28;20606;-84
2023/09/15 03:06:57;;;;;;;5.75;3.88;;;17.60;59.90;19.40;101796.00;;;;5091997;28;20660;-85
2023/09/15 03:09:24;;;;;;;4.40;3.33;;;17.60;59.90;19.40;101791.00;;;;5102883;28;20204;-85
2023/09/15 03:11:52;;;;;;;4.90;3.83;;;17.50;59.90;19.30;101795.00;;;;5107702;28;20231;-85
2023/09/15 03:14:20;;;;;;;4.70;3.88;;;17.50;59.90;19.30;101791.00;;;;5110678;28;20217;-85
2023/09/15 03:16:47;;;;;;;5.32;4.20;;;17.50;60.00;19.30;101792.00;;;;5112184;28;20212;-85
2023/09/15 03:19:14;;;;;;;5.90;4.15;;;17.50;60.00;19.30;101794.00;;;;5107482;28;20274;-84
2023/09/15 03:21:41;;;;;;;9.68;4.07;;;17.50;60.10;19.30;101785.00;;;;5097178;28;20218;-85
2023/09/15 03:24:09;;;;;;;4.70;3.80;;;17.50;60.10;19.30;101788.00;;;;5093390;28;20230;-85
2023/09/15 03:26:38;;;;;;;5.60;4.32;;;17.50;60.10;19.30;101789.00;;;;5123160;27;20258;-85
2023/09/15 03:29:06;;;;;;;6.40;3.65;;;17.50;60.10;19.30;101789.00;;;;5106842;28;20563;-85
2023/09/15 03:31:34;;;;;;;4.85;3.97;;;17.50;60.10;19.30;101786.00;;;;5105498;28;20209;-84
2023/09/15 03:34:01;;;;;;;6.63;3.85;;;17.40;60.10;19.20;101782.00;;;;5111346;28;20208;-85
2023/09/15 03:36:29;;;;;;;5.28;4.25;;;17.40;60.10;19.20;101788.00;;;;5104693;28;20210;-84
2023/09/15 03:38:56;;;;;;;5.28;3.92;;;17.40;60.10;19.20;101789.00;;;;5091634;28;20655;-84
2023/09/15 03:41:25;;;;;;;5.03;3.97;;;17.40;60.10;19.20;101784.00;;;;5097943;28;20227;-85
2023/09/15 03:43:52;;;;;;;5.15;3.70;;;17.40;60.10;19.20;101785.00;;;;5110297;28;20706;-85
2023/09/15 03:46:19;;;;;;;4.90;3.92;;;17.40;60.20;19.20;101772.00;;;;5090852;28;20190;-84
2023/09/15 03:48:48;;;;;;;5.00;3.33;;;17.40;60.20;19.10;101775.00;;;;5091709;28;20190;-85
2023/09/15 03:51:15;;;;;;;4.93;3.85;;;17.40;60.20;19.10;101770.00;;;;5097280;28;20208;-85
2023/09/15 03:53:42;;;;;;;4.32;3.88;;;17.30;60.20;19.10;101764.00;;;;5110674;28;20221;-85
2023/09/15 03:56:09;;;;;;;5.72;4.10;;;17.30;60.20;19.10;101767.00;;;;5112058;28;20548;-85
2023/09/15 03:58:36;;;;;;;4.88;3.67;;;17.30;60.20;19.10;101767.00;;;;5110126;28;20197;-85
2023/09/15 04:01:06;;;;;;;6.22;4.10;;;17.30;60.20;19.10;101771.00;;;;5098481;28;20699;-84
2023/09/15 04:03:34;;;;;;;4.88;3.90;;;17.20;60.20;19.10;101772.00;;;;5105692;28;20279;-84
2023/09/15 04:06:05;;;;;;;4.07;3.67;;;17.30;60.30;19.00;101759.00;;;;5091965;28;20199;-85
2023/09/15 04:08:32;;;;;;;9.68;4.15;;;17.20;60.30;19.00;101766.00;;;;5090485;28;20194;-84
2023/09/15 04:10:59;;;;;;;5.68;3.95;;;17.20;60.30;19.00;101759.00;;;;5100279;28;20205;-84
2023/09/15 04:13:26;;;;;;;4.32;3.53;;;17.20;60.30;19.00;101764.00;;;;5108425;28;20255;-84
2023/09/15 04:15:56;;;;;;;10.50;3.58;;;17.20;60.30;19.00;101761.00;;;;5098435;28;20292;-84
2023/09/15 04:18:23;;;;;;;4.43;3.25;;;17.20;60.40;19.00;101760.00;;;;5110726;28;20280;-84
2023/09/15 04:20:50;;;;;;;5.13;3.65;;;17.20;60.30;19.00;101762.00;;;;5110180;28;20195;-84
2023/09/15 04:23:19;;;;;;;4.63;3.60;;;17.20;60.40;18.90;101762.00;;;;5109702;27;20294;-84
2023/09/15 04:25:46;;;;;;;3.85;3.08;;;17.10;60.30;18.90;101759.00;;;;5115467;27;20224;-83
2023/09/15 04:28:13;;;;;;;5.88;4.22;;;17.10;60.30;18.90;101752.00;;;;5104826;27;20191;-84
2023/09/15 04:30:40;;;;;;;5.15;3.58;;;17.10;60.40;18.90;101754.00;;;;5098177;28;20209;-84
2023/09/15 04:33:07;;;;;;;4.63;3.45;;;17.10;60.40;18.90;101743.00;;;;5109499;28;20193;-84
2023/09/15 04:35:34;;;;;;;5.53;3.90;;;17.10;60.30;18.90;101752.00;;;;5107562;28;20201;-84
2023/09/15 04:38:02;;;;;;;4.95;3.60;;;17.10;60.30;18.90;101743.00;;;;5109359;28;20205;-84
2023/09/15 04:40:35;;;;;;;4.80;4.15;;;17.00;60.30;18.80;101750.00;;;;5109031;28;20285;-85
2023/09/15 04:43:02;;;;;;;5.18;3.72;;;17.00;60.40;18.80;101755.00;;;;5105703;28;20198;-83
2023/09/15 04:45:29;;;;;;;4.35;3.90;;;17.00;60.30;18.80;101750.00;;;;5100924;28;20656;-85
2023/09/15 04:47:56;;;;;;;4.72;3.83;;;17.00;60.30;18.80;101757.00;;;;5105846;28;20194;-85
2023/09/15 04:50:23;;;;;;;4.78;3.65;;;16.90;60.30;18.80;101757.00;;;;5110292;28;20193;-84
2023/09/15 04:52:51;;;;;;;7.45;4.65;;;16.90;60.30;18.80;101749.00;;;;5108402;28;20196;-85
2023/09/15 04:55:19;;;;;;;4.75;3.70;;;16.90;60.30;18.80;101751.00;;;;5108631;28;20300;-85
2023/09/15 04:57:47;;;;;;;3.90;3.50;;;16.90;60.30;18.70;101756.00;;;;5109699;28;20947;-84
2023/09/15 05:00:23;;;;;;;6.50;4.25;;;16.90;60.30;18.70;101745.00;;;;5107719;28;20200;-84
2023/09/15 05:02:50;;;;;;;5.13;4.18;;;16.90;60.30;18.70;101754.00;;;;5105472;28;20229;-84
2023/09/15 05:05:16;;;;;;;5.75;4.30;;;16.90;60.30;18.70;101758.00;;;;5110231;28;20209;-84
2023/09/15 05:07:43;;;;;;;7.00;4.70;;;16.80;60.30;18.70;101759.00;;;;5097345;28;20226;-85
2023/09/15 05:10:11;;;;;;;5.90;4.57;;;16.80;60.30;18.70;101759.00;;;;5093975;28;20205;-84
2023/09/15 05:12:38;;;;;;;7.30;4.32;;;16.80;60.30;18.60;101750.00;;;;5108298;28;20694;-85
2023/09/15 05:15:08;;;;;;;5.93;4.57;;;16.80;60.40;18.60;101756.00;;;;5109545;28;20201;-84
2023/09/15 05:17:35;;;;;;;7.65;4.93;;;16.80;60.40;18.60;101759.00;;;;5107508;28;20206;-84
2023/09/15 05:20:02;;;;;;;5.80;3.47;;;16.70;60.40;18.60;101760.00;;;;5106116;28;20205;-84
2023/09/15 05:22:29;;;;;;;5.43;4.15;;;16.70;60.40;18.60;101757.00;;;;5108687;28;20280;-85
2023/09/15 05:24:58;;;;;;;11.65;5.15;;;16.80;60.50;18.60;101761.00;;;;5108728;28;20233;-84
2023/09/15 05:27:26;;;;;;;5.68;4.38;;;16.70;60.50;18.50;101760.00;;;;5100513;28;20197;-85
2023/09/15 05:29:52;;;;;;;5.38;4.07;;;16.70;60.60;18.60;101763.00;;;;5108949;28;20201;-85
2023/09/15 05:32:21;;;;;;;6.47;4.32;;;16.70;60.60;18.50;101764.00;;;;5105130;28;20204;-85
2023/09/15 05:34:48;;;;;;;5.03;4.43;;;16.70;60.60;18.50;101760.00;;;;5100756;28;20198;-86
2023/09/15 05:37:16;;;;;;;4.65;4.15;;;16.70;60.60;18.50;101764.00;;;;5103683;28;20205;-84
2023/09/15 05:39:43;;;;;;;6.07;4.88;;;16.70;60.60;18.50;101763.00;;;;5110310;28;20193;-84
2023/09/15 05:42:09;;;;;;;6.18;4.90;;;16.70;60.70;18.50;101766.00;;;;5108359;28;20205;-85
2023/09/15 05:44:36;;;;;;;5.82;4.85;;;16.70;60.80;18.50;101767.00;;;;5108608;28;20221;-84
2023/09/15 05:47:04;;;;;;;6.78;4.80;;;16.70;60.80;18.50;101775.00;;;;5106833;28;20200;-86
2023/09/15 05:49:32;;;;;;;7.18;4.85;;;16.70;60.90;18.50;101773.00;;;;5090107;28;20198;-83
2023/09/15 05:52:00;;;;;;;7.38;5.40;;;16.70;60.90;18.50;101767.00;;;;5092276;28;20205;-88
2023/09/15 05:54:28;;;;;;;6.10;4.72;;;16.70;60.90;18.50;101775.00;;;;5099355;28;20205;-87
2023/09/15 05:56:55;;;;;;;5.80;4.88;;;16.70;61.00;18.50;101773.00;;;;5105616;28;20205;-86
2023/09/15 05:59:22;;;;;;;6.70;5.40;;;16.70;61.10;18.60;101772.00;;;;5103607;28;20312;-86
2023/09/15 06:01:49;;;;;;;8.43;5.50;;;16.70;61.10;18.60;101771.00;;;;5101446;28;20229;-87
2023/09/15 06:04:16;;;;;;;7.35;5.60;;;16.70;61.10;18.60;101778.00;;;;5102923;28;20240;-85
2023/09/15 06:06:45;;;;;;;6.60;5.07;;;16.70;61.20;18.60;101777.00;;;;5098050;28;20202;-84
2023/09/15 06:09:12;;;;;;;7.97;5.53;;;16.70;61.20;18.60;101775.00;;;;5104127;28;20204;-86
2023/09/15 06:11:38;;;;;;;5.95;5.35;;;16.70;61.20;18.60;101783.00;;;;5099950;28;20202;-87
2023/09/15 06:14:05;;;;;;;9.48;5.22;;;16.70;61.20;18.60;101780.00;;;;5098024;28;20217;-87
2023/09/15 06:16:34;;;;;;;7.18;4.93;;;16.80;61.40;18.70;101786.00;;;;5109329;28;20213;-86
2023/09/15 06:19:02;;;;;;;6.03;5.20;;;16.80;61.40;18.70;101788.00;;;;5108559;28;20198;-86
2023/09/15 06:21:29;;;;;;;6.00;4.60;;;16.80;61.50;18.70;101786.00;;;;5091180;28;20198;-87
2023/09/15 06:23:57;;;;;;;7.70;4.70;;;16.80;61.50;18.70;101786.00;;;;5089080;28;20691;-87
2023/09/15 06:26:25;;;;;;;6.97;5.20;;;16.90;61.60;18.80;101790.00;;;;5094063;28;20206;-86
2023/09/15 06:28:52;;;;;;;5.22;4.70;;;16.90;61.70;18.80;101794.00;;;;5107131;28;20190;-87
2023/09/15 06:31:19;;;;;;;6.30;4.93;;;17.00;61.80;18.90;101794.00;;;;5109161;28;20201;-86
2023/09/15 06:33:46;;;;;;;7.15;4.80;;;17.00;61.90;18.90;101791.00;;;;5109024;28;20838;-87
2023/09/15 06:36:15;;;;;;;6.00;4.60;;;17.00;62.00;18.90;101793.00;;;;5108624;28;20196;-86
2023/09/15 06:38:42;;;;;;;6.63;4.30;;;17.10;62.10;19.00;101791.00;;;;5089262;28;20249;-85
2023/09/15 06:41:10;;;;;;;4.60;3.92;;;17.20;62.20;19.10;101792.00;;;;5089144;28;20676;-86
2023/09/15 06:43:37;;;;;;;6.28;5.30;;;17.20;62.30;19.20;101796.00;;;;5089178;28;20198;-86
2023/09/15 06:46:05;;;;;;;6.43;4.88;;;17.20;62.30;19.20;101794.00;;;;5090415;28;20198;-87
2023/09/15 06:48:32;;;;;;;11.63;4.45;;;17.40;62.30;19.30;101786.00;;;;5090059;28;20240;-87
2023/09/15 06:50:59;;;;;;;5.32;4.65;;;17.40;62.30;19.30;101793.00;;;;5106077;28;20201;-88
2023/09/15 06:53:27;;;;;;;5.80;4.50;;;17.50;62.40;19.40;101792.00;;;;5101718;28;20201;-88
2023/09/15 06:55:57;;;;;;;7.28;4.78;;;17.60;62.30;19.50;101781.00;;;;5091635;28;20198;-85
2023/09/15 06:58:26;;;;;;;6.05;4.70;;;17.60;62.20;19.60;101782.00;;;;5092182;28;20225;-89
2023/09/15 07:00:56;;;;;;;5.70;4.22;;;17.70;62.20;19.60;101781.00;;;;5099297;28;20571;-89
2023/09/15 07:03:26;;;;;;;5.65;4.68;;;17.80;62.40;19.70;101769.00;;;;5109964;28;20879;-88
2023/09/15 07:05:58;;;;;;;7.53;4.85;;;17.90;62.30;19.80;101778.00;;;;5110277;28;20568;-89
2023/09/15 07:08:25;;;;;;;5.85;3.88;;;18.00;62.40;19.90;101773.00;;;;5089521;28;20198;-87
2023/09/15 07:10:52;;;;;;;5.40;4.50;;;18.10;62.60;20.00;101777.00;;;;5095572;28;20193;-87
2023/09/15 07:13:19;;;;;;;6.22;4.57;;;18.20;62.20;20.10;101773.00;;;;5113841;28;20229;-86
2023/09/15 07:15:49;;;;;;;7.63;4.63;;;18.30;62.20;20.20;101775.00;;;;5114857;28;20202;-89
2023/09/15 07:18:16;;;;;;;6.95;4.07;;;18.30;62.10;20.30;101769.00;;;;5114011;28;20201;-89
2023/09/15 07:20:43;;;;;;;6.18;4.28;;;18.40;62.10;20.40;101776.00;;;;5114348;28;20746;-87
2023/09/15 07:23:10;;;;;;;4.80;4.03;;;18.50;62.20;20.40;101775.00;;;;5113491;28;20197;-88
2023/09/15 07:25:37;;;;;;;6.95;4.55;;;18.60;62.00;20.50;101774.00;;;;5108047;28;20209;-86
2023/09/15 07:28:05;;;;;;;5.63;4.10;;;18.70;62.00;20.60;101771.00;;;;5113291;28;20285;-87
2023/09/15 07:30:33;;;;;;;7.22;4.95;;;18.80;61.90;20.70;101768.00;;;;5111961;28;20202;-84
2023/09/15 07:33:08;;;;;;;7.40;4.32;;;18.90;61.70;20.70;101764.00;;;;5112707;28;20201;-88
2023/09/15 07:35:43;;;;;;;5.57;4.55;;;19.00;61.70;20.80;101754.00;;;;5113492;28;20196;-89
2023/09/15 07:38:10;;;;;;;7.28;4.10;;;19.00;61.50;21.00;101753.00;;;;5113886;28;20191;-89
2023/09/15 07:40:37;;;;;;;8.88;4.22;;;19.10;61.50;21.00;101750.00;;;;5111464;28;20205;-88
2023/09/15 07:43:04;;;;;;;4.88;3.83;;;19.20;61.60;21.10;101754.00;;;;5112344;28;20198;-87
2023/09/15 07:45:31;;;;;;;5.40;3.50;;;19.30;61.50;21.20;101749.00;;;;5112514;28;20225;-86
2023/09/15 07:47:58;;;;;;;5.78;3.88;;;19.40;61.40;21.30;101745.00;;;;5113368;28;20197;-88
2023/09/15 07:50:27;;;;;;;6.13;3.88;;;19.50;61.30;21.40;101740.00;;;;5106824;27;20198;-87
2023/09/15 07:53:02;;;;;;;4.95;3.92;;;19.60;61.20;21.40;101749.00;;;;5097069;28;20202;-91
2023/09/15 07:55:30;;;;;;;6.88;4.13;;;19.70;61.30;21.60;101744.00;;;;5099543;28;20280;-86
2023/09/15 07:57:57;;;;;;;4.70;3.45;;;19.80;61.20;21.70;101743.00;;;;5104943;28;20194;-88
2023/09/15 08:00:24;;;;;;;4.90;3.38;;;19.80;60.90;21.70;101741.00;;;;5119310;27;20197;-87
2023/09/15 08:02:51;;;;;;;4.75;3.85;;;20.00;60.90;21.80;101738.00;;;;5126319;27;20225;-90
2023/09/15 08:05:18;;;;;;;5.68;3.67;;;20.00;60.80;21.90;101746.00;;;;5112655;28;20221;-87
2023/09/15 08:07:48;;;;;;;4.80;3.53;;;20.10;60.70;22.00;101742.00;;;;5110324;28;20197;-87
2023/09/15 08:10:18;;;;;;;5.15;3.67;;;20.20;60.80;22.10;101738.00;;;;5093201;28;20190;-89
2023/09/15 08:12:45;;;;;;;4.95;3.25;;;20.30;60.80;22.20;101726.00;;;;5120001;27;20219;-89
2023/09/15 08:15:14;;;;;;;7.15;4.15;;;20.40;60.70;22.30;101730.00;;;;5092942;28;20602;-89
2023/09/15 08:17:41;;;;;;;6.53;3.50;;;20.50;60.70;22.40;101730.00;;;;5091550;28;20675;-88
2023/09/15 08:20:10;;;;;;;4.55;3.58;;;20.60;60.50;22.40;101736.00;;;;5091719;28;20198;-88
2023/09/15 08:22:38;;;;;;;4.10;3.00;;;20.70;60.30;22.50;101732.00;;;;5100700;28;20667;-90
2023/09/15 08:25:14;;;;;;;7.50;3.25;;;20.80;60.20;22.60;101734.00;;;;5111595;28;21497;-86
2023/09/15 08:27:44;;;;;;;5.32;3.40;;;20.80;60.00;22.70;101732.00;;;;5111688;28;20205;-88
2023/09/15 08:30:11;;;;;;;6.30;3.15;;;20.90;59.90;22.80;101733.00;;;;5101059;28;20225;-88
2023/09/15 08:32:39;;;;;;;7.07;3.38;;;21.10;59.90;22.90;101733.00;;;;5092463;28;20194;-89
2023/09/15 08:35:07;;;;;;;4.57;3.47;;;21.20;59.90;23.00;101738.00;;;;5092652;28;20197;-87
2023/09/15 08:37:40;;;;;;;6.03;3.10;;;21.20;59.80;23.00;101734.00;;;;5101201;28;20186;-88
2023/09/15 08:40:22;;;;;;;6.43;3.38;;;21.30;59.70;23.10;101743.00;;;;5112906;28;20201;-89
2023/09/15 08:42:50;;;;;;;4.38;3.35;;;21.40;59.20;23.30;101733.00;;;;5093385;28;20214;-88
2023/09/15 08:45:20;;;;;;;6.07;3.55;;;21.60;59.50;23.40;101737.00;;;;5093235;28;20232;-88
2023/09/15 08:47:55;;;;;;;3.42;2.65;;;21.70;59.50;23.50;101734.00;;;;5092600;28;20201;-90
2023/09/15 08:50:27;;;;;;;4.45;3.20;;;21.70;59.30;23.60;101733.00;;;;5092356;28;20190;-90
2023/09/15 08:52:55;;;;;;;4.70;3.50;;;21.90;59.20;23.70;101738.00;;;;5100062;28;20190;-87
2023/09/15 08:55:30;;;;;;;4.47;3.17;;;22.00;59.10;23.80;101729.00;;;;5111870;28;20190;-91
2023/09/15 08:57:57;;;;;;;4.60;2.97;;;22.10;58.60;23.90;101740.00;;;;5113318;28;20200;-87
2023/09/15 09:00:25;;;;;;;7.45;2.58;;;22.20;58.80;24.00;101729.00;;;;5111483;28;20213;-88
2023/09/15 09:02:54;;;;;;;11.27;2.67;;;22.30;58.60;24.10;101737.00;;;;5098058;28;20230;-88
2023/09/15 09:05:25;;;;;;;4.00;2.35;;;22.40;58.60;24.20;101728.00;;;;5112453;28;20222;-90
2023/09/15 09:07:55;;;;;;;4.50;3.10;;;22.50;58.40;24.30;101717.00;;;;5113191;28;20244;-88
2023/09/15 09:10:26;;;;;;;5.13;3.17;;;22.60;58.40;24.40;101721.00;;;;5111732;28;20194;-91
2023/09/15 09:13:13;;;;;;;4.07;3.10;;;22.70;58.20;24.50;101719.00;;;;5112967;28;20228;-90
2023/09/15 09:15:42;;;;;;;2.65;2.38;;;22.80;57.70;24.70;101724.00;;;;5113347;28;20198;-91
2023/09/15 09:18:16;;;;;;;6.35;2.83;;;23.00;58.20;24.80;101717.00;;;;5093882;28;20210;-90
2023/09/15 09:20:50;;;;;;;3.65;3.20;;;23.10;58.00;24.90;101714.00;;;;5093469;28;20187;-92
2023/09/15 09:23:18;;;;;;;6.10;3.40;;;23.20;57.80;25.10;101714.00;;;;5100307;28;20238;-91
2023/09/15 09:25:46;;;;;;;4.32;2.83;;;23.40;57.70;25.20;101715.00;;;;5112516;28;20694;-91
2023/09/15 09:28:16;;;;;;;4.05;2.97;;;23.50;57.40;25.30;101717.00;;;;5112179;28;20204;-88
2023/09/15 09:30:43;;;;;;;4.13;2.75;;;23.60;57.40;25.50;101709.00;;;;5112127;28;20197;-90
2023/09/15 09:33:12;;;;;;;4.05;2.88;;;23.70;57.80;25.60;101706.00;;;;5112919;28;20201;-91
2023/09/15 09:35:52;;;;;;;3.67;2.95;;;23.90;57.30;25.60;101705.00;;;;5113061;28;20193;-92
2023/09/15 09:38:20;;;;;;;3.05;2.47;;;24.00;56.50;25.80;101701.00;;;;5113039;28;20559;-90
2023/09/15 09:40:47;;;;;;;6.97;3.40;;;24.10;56.70;25.90;101701.00;;;;5113318;28;20225;-91
2023/09/15 09:43:23;;;;;;;4.68;2.97;;;24.30;56.60;25.90;101693.00;;;;5105773;28;20200;-91
2023/09/15 09:45:51;;;;;;;5.18;3.05;;;24.40;55.70;26.10;101700.00;;;;5091011;28;20229;-89
2023/09/15 09:48:20;;;;;;;3.83;2.90;;;24.50;55.90;26.20;101695.00;;;;5095941;28;20204;-87
2023/09/15 09:50:50;;;;;;;4.30;2.85;;;24.60;55.80;26.30;101694.00;;;;5101463;28;20210;-89
2023/09/15 09:53:27;;;;;;;4.50;3.08;;;24.70;55.20;26.40;101705.00;;;;5102828;28;20193;-92
2023/09/15 09:55:54;;;;;;;4.22;3.03;;;24.90;54.80;26.50;101700.00;;;;5099791;28;20214;-89
2023/09/15 09:58:24;;;;;;;3.42;2.60;;;24.90;54.70;26.60;101701.00;;;;5090928;28;20226;-88
2023/09/15 10:00:52;;;;;;;4.25;2.75;;;25.00;54.50;26.70;101696.00;;;;5096018;28;20259;-90
2023/09/15 10:03:27;;;;;;;2.50;2.30;;;25.20;54.10;26.70;101706.00;;;;5101211;28;20190;-92
2023/09/15 10:05:54;;;;;;;5.25;2.72;;;25.20;53.10;26.90;101703.00;;;;5105894;28;20690;-88
2023/09/15 10:08:22;;;;;;;4.22;2.05;;;25.30;53.70;26.90;101697.00;;;;5109500;28;20205;-87
2023/09/15 10:10:51;;;;;;;4.53;2.67;;;25.50;53.40;27.00;101703.00;;;;5110898;28;20196;-88
2023/09/15 10:13:30;;;;;;;2.50;2.05;;;25.50;52.60;26.90;101687.00;;;;5110945;28;20217;-91
2023/09/15 10:15:58;;;;;;;2.20;1.88;;;25.60;52.10;27.10;101688.00;;;;5109083;28;20239;-87
2023/09/15 10:18:27;;;;;;;2.83;2.08;;;25.70;52.80;27.10;101685.00;;;;5110171;28;20201;-91
2023/09/15 10:20:58;;;;;;;4.20;2.40;;;25.80;52.40;27.20;101691.00;;;;5111100;28;20281;-92
2023/09/15 10:23:25;;;;;;;5.03;2.63;;;25.80;52.10;27.30;101687.00;;;;5111380;28;20190;-90
2023/09/15 10:25:54;;;;;;;3.15;2.45;;;25.80;52.40;27.40;101690.00;;;;5111103;28;20229;-92
2023/09/15 10:28:23;;;;;;;4.85;2.20;;;25.90;52.40;27.50;101679.00;;;;5110953;28;20200;-93
2023/09/15 10:30:56;;;;;;;3.90;2.70;;;26.00;52.00;27.50;101678.00;;;;5112099;28;20208;-93
2023/09/15 10:33:26;;;;;;;2.83;2.28;;;26.10;51.60;27.60;101680.00;;;;5112548;28;20189;-87
2023/09/15 10:36:01;;;;;;;3.13;2.33;;;26.20;51.90;27.70;101680.00;;;;5111235;28;20198;-90
2023/09/15 10:38:45;;;;;;;2.95;2.53;;;26.30;51.50;27.70;101667.00;;;;5110397;28;20682;-89
2023/09/15 10:41:23;;;;;;;3.28;2.75;;;26.40;50.50;27.80;101676.00;;;;5105357;28;20239;-87
2023/09/15 10:43:51;;;;;;;3.53;2.63;;;26.50;51.10;27.90;101662.00;;;;5089591;28;20198;-87
2023/09/15 10:46:21;;;;;;;4.93;3.00;;;26.50;51.50;27.90;101674.00;;;;5093112;28;20233;-87
2023/09/15 10:48:51;;;;;;;5.15;3.25;;;26.50;50.50;27.90;101658.00;;;;5094811;28;20682;-86
2023/09/15 10:51:19;;;;;;;4.57;2.97;;;26.60;50.50;28.00;101668.00;;;;5093807;28;20243;-84
2023/09/15 10:53:59;;;;;;;4.00;2.97;;;26.60;50.70;27.90;101667.00;;;;5106997;28;20198;-89
2023/09/15 10:56:26;;;;;;;3.60;2.92;;;26.70;50.00;28.00;101664.00;;;;5108180;28;20675;-89